createdAt,value
2024-04-30T00:00:38.244Z,94.70
2024-04-30T00:03:05.762Z,94.90
2024-04-30T00:05:33.070Z,94.90
2024-04-30T00:08:00.454Z,94.50
2024-04-30T00:10:30.290Z,95.00
2024-04-30T00:12:57.670Z,95.10
2024-04-30T00:15:24.878Z,95.30
2024-04-30T00:17:52.140Z,92.90
2024-04-30T00:20:19.240Z,91.80
2024-04-30T00:22:46.322Z,87.70
2024-04-30T00:25:13.736Z,82.80
2024-04-30T00:27:42.683Z,85.80
2024-04-30T00:30:11.284Z,86.10
2024-04-30T00:32:38.438Z,84.30
2024-04-30T00:35:05.890Z,82.50
2024-04-30T00:37:33.048Z,83.50
2024-04-30T00:40:00.271Z,84.50
2024-04-30T00:42:27.459Z,83.80
2024-04-30T00:44:54.519Z,82.80
2024-04-30T00:47:21.983Z,83.40
2024-04-30T00:49:50.101Z,83.40
2024-04-30T00:52:19.979Z,84.10
2024-04-30T00:54:47.307Z,84.30
2024-04-30T00:57:15.633Z,84.00
2024-04-30T00:59:43.896Z,84.40
2024-04-30T01:02:15.941Z,83.50
2024-04-30T01:04:43.115Z,82.90
2024-04-30T01:07:10.491Z,82.70
2024-04-30T01:09:37.668Z,84.30
2024-04-30T01:12:05.184Z,82.70
2024-04-30T01:14:32.197Z,82.30
2024-04-30T01:16:59.312Z,83.20
2024-04-30T01:19:26.444Z,83.80
2024-04-30T01:21:53.528Z,84.50
2024-04-30T01:24:20.631Z,85.40
2024-04-30T01:26:47.760Z,84.60
2024-04-30T01:29:14.765Z,85.00
2024-04-30T01:31:43.933Z,85.20
2024-04-30T01:34:10.961Z,84.00
2024-04-30T01:36:38.119Z,84.30
2024-04-30T01:39:05.190Z,84.30
2024-04-30T01:41:32.238Z,84.50
2024-04-30T01:43:59.320Z,84.10
2024-04-30T01:46:26.933Z,83.50
2024-04-30T01:48:53.989Z,83.30
2024-04-30T01:51:21.063Z,84.20
2024-04-30T01:53:48.102Z,83.90
2024-04-30T01:56:15.188Z,83.50
2024-04-30T01:58:42.241Z,81.60
2024-04-30T02:01:09.457Z,80.50
2024-04-30T02:03:36.642Z,80.10
2024-04-30T02:06:04.046Z,80.30
2024-04-30T02:08:31.067Z,79.40
2024-04-30T02:10:58.266Z,78.30
2024-04-30T02:13:25.401Z,79.10
2024-04-30T02:15:52.472Z,78.60
2024-04-30T02:18:19.513Z,78.20
2024-04-30T02:20:48.835Z,77.60
2024-04-30T02:23:15.897Z,78.30
2024-04-30T02:25:42.901Z,77.10
2024-04-30T02:28:09.993Z,77.20
2024-04-30T02:30:55.512Z,77.60
2024-04-30T02:33:41.024Z,77.30
2024-04-30T02:36:11.680Z,77.10
2024-04-30T02:38:38.762Z,77.40
2024-04-30T02:41:08.009Z,78.80
2024-04-30T02:43:35.184Z,77.90
2024-04-30T02:46:02.336Z,78.40
2024-04-30T02:48:29.618Z,79.40
2024-04-30T02:50:56.734Z,79.40
2024-04-30T02:53:23.746Z,79.30
2024-04-30T02:55:50.834Z,80.00
2024-04-30T02:58:18.059Z,80.00
2024-04-30T03:00:45.104Z,81.60
2024-04-30T03:03:12.257Z,81.50
2024-04-30T03:05:39.394Z,81.50
2024-04-30T03:08:06.652Z,82.70
2024-04-30T03:10:33.779Z,82.70
2024-04-30T03:13:00.962Z,83.80
2024-04-30T03:15:28.006Z,84.00
2024-04-30T03:17:55.706Z,83.60
2024-04-30T03:20:22.893Z,85.10
2024-04-30T03:22:50.047Z,84.60
2024-04-30T03:25:17.254Z,86.50
2024-04-30T03:27:44.558Z,85.70
2024-04-30T03:30:11.716Z,86.00
2024-04-30T03:32:41.589Z,86.40
2024-04-30T03:35:08.838Z,86.40
2024-04-30T03:37:35.961Z,87.10
2024-04-30T03:40:03.880Z,87.00
2024-04-30T03:42:31.042Z,87.70
2024-04-30T03:44:58.089Z,88.70
2024-04-30T03:47:31.224Z,89.20
2024-04-30T03:50:01.462Z,90.10
2024-04-30T03:52:29.236Z,90.30
2024-04-30T03:54:56.339Z,90.10
2024-04-30T03:57:23.507Z,90.00
2024-04-30T03:59:50.524Z,90.60
2024-04-30T04:04:45.055Z,91.00
2024-04-30T04:07:12.130Z,91.30
2024-04-30T04:09:39.126Z,91.60
2024-04-30T04:12:25.003Z,91.80
2024-04-30T04:14:52.638Z,92.30
2024-04-30T04:17:20.476Z,92.10
2024-04-30T04:19:48.354Z,92.40
2024-04-30T04:22:15.592Z,92.60
2024-04-30T04:24:42.687Z,92.60
2024-04-30T04:27:09.727Z,92.30
2024-04-30T04:29:38.982Z,92.80
2024-04-30T04:32:07.420Z,93.20
2024-04-30T04:34:34.678Z,92.90
2024-04-30T04:37:01.758Z,93.10
2024-04-30T04:39:28.782Z,93.30
2024-04-30T04:41:55.768Z,92.80
2024-04-30T04:44:24.806Z,93.10
2024-04-30T04:46:51.823Z,92.90
2024-04-30T04:49:18.825Z,93.00
2024-04-30T04:51:45.815Z,93.40
2024-04-30T04:54:12.730Z,92.90
2024-04-30T04:56:39.687Z,93.10
2024-04-30T04:59:06.634Z,93.40
2024-04-30T05:01:33.581Z,93.20
2024-04-30T05:04:00.697Z,92.70
2024-04-30T05:06:27.821Z,92.70
2024-04-30T05:08:54.747Z,92.30
2024-04-30T05:11:21.801Z,92.70
2024-04-30T05:13:48.951Z,92.80
2024-04-30T05:16:15.891Z,93.10
2024-04-30T05:18:44.202Z,92.50
2024-04-30T05:21:11.222Z,92.70
2024-04-30T05:23:38.195Z,92.30
2024-04-30T05:26:05.889Z,91.60
2024-04-30T05:28:33.002Z,91.30
2024-04-30T05:31:00.003Z,91.30
2024-04-30T05:33:28.895Z,91.50
2024-04-30T05:35:55.963Z,91.20
2024-04-30T05:38:25.854Z,91.00
2024-04-30T05:40:53.035Z,90.80
2024-04-30T05:43:20.199Z,90.30
2024-04-30T05:45:47.536Z,90.00
2024-04-30T05:48:14.673Z,90.00
2024-04-30T05:50:41.659Z,89.70
2024-04-30T05:53:11.330Z,89.60
2024-04-30T05:55:38.403Z,89.70
2024-04-30T05:58:05.414Z,88.10
2024-04-30T06:00:32.405Z,87.60
2024-04-30T06:03:04.016Z,86.90
2024-04-30T06:05:32.270Z,86.60
2024-04-30T06:07:59.309Z,85.00
2024-04-30T06:10:26.485Z,82.90
2024-04-30T06:12:53.647Z,82.90
2024-04-30T06:15:20.621Z,82.60
2024-04-30T06:17:47.683Z,82.90
2024-04-30T06:20:14.744Z,79.10
2024-04-30T06:22:41.787Z,78.40
2024-04-30T06:25:08.756Z,78.30
2024-04-30T06:27:35.731Z,74.90
2024-04-30T06:30:02.743Z,75.20
2024-04-30T06:32:29.720Z,77.60
2024-04-30T06:34:56.729Z,76.70
2024-04-30T06:37:23.747Z,76.10
2024-04-30T06:39:56.691Z,73.60
2024-04-30T06:42:23.613Z,73.20
2024-04-30T06:44:50.822Z,72.80
2024-04-30T06:47:17.795Z,73.10
2024-04-30T06:49:46.519Z,72.00
2024-04-30T06:52:13.623Z,70.80
2024-04-30T06:54:40.576Z,70.70
2024-04-30T06:57:07.485Z,70.00
2024-04-30T06:59:34.411Z,70.70
2024-04-30T07:02:01.363Z,71.10
2024-04-30T07:04:30.625Z,70.70
2024-04-30T07:07:00.108Z,67.60
2024-04-30T07:09:29.154Z,66.90
2024-04-30T07:11:56.110Z,65.70
2024-04-30T07:14:23.198Z,65.20
2024-04-30T07:16:56.772Z,65.20
2024-04-30T07:19:29.937Z,63.70
2024-04-30T07:21:56.913Z,63.40
2024-04-30T07:24:23.838Z,60.60
2024-04-30T07:26:50.778Z,59.00
2024-04-30T07:29:17.752Z,58.70
2024-04-30T07:31:44.721Z,58.30
2024-04-30T07:34:11.740Z,55.00
2024-04-30T07:36:38.741Z,55.50
2024-04-30T07:39:07.952Z,56.00
2024-04-30T07:41:34.894Z,56.30
2024-04-30T07:44:01.954Z,52.90
2024-04-30T07:46:28.971Z,52.60
2024-04-30T07:48:55.934Z,51.00
2024-04-30T07:51:23.075Z,48.00
2024-04-30T07:53:52.717Z,48.90
2024-04-30T07:56:19.732Z,46.60
2024-04-30T07:58:46.767Z,44.30
2024-04-30T08:01:13.984Z,45.10
2024-04-30T08:03:42.812Z,46.30
2024-04-30T08:06:14.775Z,45.10
2024-04-30T08:08:48.054Z,41.10
2024-04-30T08:11:15.822Z,41.80
2024-04-30T08:13:45.470Z,41.40
2024-04-30T08:16:13.281Z,42.50
2024-04-30T08:18:40.621Z,41.20
2024-04-30T08:21:08.086Z,40.60
2024-04-30T08:23:38.267Z,39.90
2024-04-30T08:26:06.980Z,37.50
2024-04-30T08:28:39.825Z,37.90
2024-04-30T08:31:07.611Z,39.50
2024-04-30T08:33:34.643Z,38.60
2024-04-30T08:36:01.759Z,37.90
2024-04-30T08:38:28.909Z,36.40
2024-04-30T08:40:56.158Z,37.50
2024-04-30T08:43:23.181Z,37.90
2024-04-30T08:45:51.227Z,36.90
2024-04-30T08:48:20.235Z,36.50
2024-04-30T08:50:51.473Z,35.80
2024-04-30T08:53:21.355Z,37.10
2024-04-30T08:55:48.695Z,36.10
2024-04-30T08:58:15.732Z,37.10
2024-04-30T09:00:42.948Z,34.90
2024-04-30T09:03:10.366Z,36.00
2024-04-30T09:05:37.459Z,34.40
2024-04-30T09:08:04.956Z,33.60
2024-04-30T09:10:32.173Z,33.40
2024-04-30T09:12:59.800Z,34.00
2024-04-30T09:15:26.944Z,37.20
2024-04-30T09:17:54.631Z,34.00
2024-04-30T09:20:21.734Z,34.00
2024-04-30T09:22:52.825Z,33.00
2024-04-30T09:25:35.933Z,32.70
2024-04-30T09:28:13.089Z,31.60
2024-04-30T09:30:43.043Z,32.20
2024-04-30T09:33:11.393Z,32.30
2024-04-30T09:35:38.584Z,33.30
2024-04-30T09:38:08.895Z,34.60
2024-04-30T09:40:37.249Z,34.70
2024-04-30T09:43:05.042Z,34.80
2024-04-30T09:45:34.771Z,31.60
2024-04-30T09:48:09.776Z,30.50
2024-04-30T09:50:38.635Z,29.90
2024-04-30T09:53:07.918Z,31.30
2024-04-30T09:55:37.683Z,31.90
2024-04-30T09:58:06.769Z,29.70
2024-04-30T10:00:33.793Z,31.20
2024-04-30T10:03:05.268Z,28.20
2024-04-30T10:05:36.322Z,28.60
2024-04-30T10:08:04.852Z,28.70
2024-04-30T10:10:33.043Z,28.80
2024-04-30T10:13:23.959Z,30.50
2024-04-30T10:15:51.334Z,31.10
2024-04-30T10:18:27.165Z,30.00
2024-04-30T10:20:54.145Z,32.20
2024-04-30T10:23:31.319Z,28.10
2024-04-30T10:26:05.734Z,29.30
2024-04-30T10:28:34.202Z,28.00
2024-04-30T10:31:11.349Z,28.30
2024-04-30T10:33:39.171Z,30.10
2024-04-30T10:36:09.575Z,27.70
2024-04-30T10:38:36.836Z,29.40
2024-04-30T10:41:05.454Z,27.90
2024-04-30T10:43:33.358Z,27.40
2024-04-30T10:46:11.368Z,26.50
2024-04-30T10:48:38.471Z,27.80
2024-04-30T10:51:05.693Z,27.30
2024-04-30T10:53:33.602Z,26.60
2024-04-30T10:56:03.264Z,27.50
2024-04-30T10:58:30.348Z,25.80
2024-04-30T11:00:59.656Z,27.40
2024-04-30T11:03:26.840Z,27.20
2024-04-30T11:06:01.242Z,27.10
2024-04-30T11:08:28.832Z,26.30
2024-04-30T11:11:07.834Z,26.20
2024-04-30T11:13:34.976Z,26.10
2024-04-30T11:16:08.082Z,25.10
2024-04-30T11:18:41.015Z,25.70
2024-04-30T11:21:08.136Z,26.80
2024-04-30T11:23:35.112Z,25.40
2024-04-30T11:26:02.126Z,26.80
2024-04-30T11:28:29.177Z,25.90
2024-04-30T11:30:58.423Z,24.80
2024-04-30T11:33:27.038Z,25.80
2024-04-30T11:35:55.366Z,26.70
2024-04-30T11:38:24.854Z,25.20
2024-04-30T11:40:54.059Z,25.20
2024-04-30T11:43:21.200Z,26.10
2024-04-30T11:45:48.397Z,25.50
2024-04-30T11:48:15.664Z,25.00
2024-04-30T11:50:42.711Z,25.40
2024-04-30T11:53:09.777Z,23.70
2024-04-30T11:55:36.869Z,24.90
2024-04-30T11:58:04.985Z,24.70
2024-04-30T12:00:32.319Z,24.10
2024-04-30T12:02:59.401Z,24.30
2024-04-30T12:05:29.412Z,25.60
2024-04-30T12:07:56.546Z,24.80
2024-04-30T12:10:24.261Z,22.90
2024-04-30T12:12:52.199Z,23.40
2024-04-30T12:15:19.649Z,23.00
2024-04-30T12:17:46.917Z,24.90
2024-04-30T12:20:14.263Z,23.20
2024-04-30T12:22:41.467Z,22.50
2024-04-30T12:25:11.385Z,22.80
2024-04-30T12:27:41.158Z,22.20
2024-04-30T12:30:11.205Z,23.40
2024-04-30T12:32:38.248Z,23.10
2024-04-30T12:35:05.583Z,23.20
2024-04-30T12:37:32.611Z,23.60
2024-04-30T12:39:59.706Z,24.90
2024-04-30T12:42:26.787Z,24.10
2024-04-30T12:44:53.755Z,23.50
2024-04-30T12:47:20.767Z,24.20
2024-04-30T12:49:47.899Z,23.10
2024-04-30T12:52:15.075Z,23.90
2024-04-30T12:54:42.063Z,25.40
2024-04-30T12:57:09.000Z,25.50
2024-04-30T12:59:35.979Z,25.10
2024-04-30T13:02:03.084Z,25.60
2024-04-30T13:04:39.833Z,25.40
2024-04-30T13:07:07.016Z,25.90
2024-04-30T13:09:34.387Z,25.90
2024-04-30T13:12:01.421Z,25.70
2024-04-30T13:14:28.475Z,24.90
2024-04-30T13:16:55.456Z,25.50
2024-04-30T13:19:22.439Z,25.20
2024-04-30T13:21:51.196Z,25.00
2024-04-30T13:24:18.415Z,25.70
2024-04-30T13:26:47.552Z,24.40
2024-04-30T13:29:14.553Z,26.00
2024-04-30T13:31:45.434Z,24.80
2024-04-30T13:34:12.875Z,25.20
2024-04-30T13:36:40.159Z,24.30
2024-04-30T13:39:07.769Z,26.80
2024-04-30T13:41:34.795Z,24.60
2024-04-30T13:44:01.833Z,25.40
2024-04-30T13:46:31.318Z,25.40
2024-04-30T13:48:58.329Z,23.60
2024-04-30T13:51:25.341Z,24.30
2024-04-30T13:53:52.352Z,24.70
2024-04-30T13:56:19.517Z,25.50
2024-04-30T13:58:47.355Z,24.80
2024-04-30T14:01:20.297Z,24.40
2024-04-30T14:03:47.382Z,24.40
2024-04-30T14:06:16.104Z,25.10
2024-04-30T14:08:43.330Z,25.10
2024-04-30T14:11:10.571Z,25.60
2024-04-30T14:13:37.646Z,25.00
2024-04-30T14:16:04.915Z,24.90
2024-04-30T14:18:34.940Z,24.80
2024-04-30T14:21:01.991Z,24.40
2024-04-30T14:23:29.615Z,23.90
2024-04-30T14:25:57.676Z,23.40
2024-04-30T14:28:25.680Z,24.00
2024-04-30T14:30:52.900Z,24.00
2024-04-30T14:33:20.134Z,23.50
2024-04-30T14:36:05.516Z,23.80
2024-04-30T14:38:37.523Z,23.70
2024-04-30T14:41:04.743Z,24.40
2024-04-30T14:43:31.717Z,24.50
2024-04-30T14:45:58.720Z,23.50
2024-04-30T14:48:25.813Z,23.20
2024-04-30T14:50:54.009Z,23.70
2024-04-30T14:53:20.989Z,23.30
2024-04-30T14:55:48.339Z,23.50
2024-04-30T14:58:15.614Z,24.30
2024-04-30T15:00:42.619Z,23.90
2024-04-30T15:03:09.721Z,24.10
2024-04-30T15:05:37.395Z,24.10
2024-04-30T15:08:04.630Z,24.30
2024-04-30T15:10:32.065Z,24.80
2024-04-30T15:12:59.036Z,24.80
2024-04-30T15:15:25.987Z,25.20
2024-04-30T15:17:53.010Z,24.90
2024-04-30T15:20:19.938Z,25.10
2024-04-30T15:22:46.925Z,25.10
2024-04-30T15:25:14.153Z,24.90
2024-04-30T15:27:41.130Z,24.80
2024-04-30T15:30:08.692Z,25.60
2024-04-30T15:32:35.785Z,25.40
2024-04-30T15:35:03.021Z,24.90
2024-04-30T15:37:29.973Z,25.20
2024-04-30T15:39:57.090Z,25.80
2024-04-30T15:42:24.989Z,25.70
2024-04-30T15:44:51.982Z,25.50
2024-04-30T15:47:18.989Z,25.50
2024-04-30T15:49:45.998Z,25.40
2024-04-30T15:52:13.074Z,25.10
2024-04-30T15:54:40.186Z,24.90
2024-04-30T15:57:07.131Z,24.40
2024-04-30T15:59:35.749Z,23.30
2024-04-30T16:02:02.872Z,23.50
2024-04-30T16:04:30.090Z,23.10
2024-04-30T16:06:57.073Z,23.40
2024-04-30T16:09:24.040Z,24.00
2024-04-30T16:11:51.081Z,24.00
2024-04-30T16:14:18.354Z,24.90
2024-04-30T16:16:45.455Z,25.10
2024-04-30T16:19:15.778Z,25.10
2024-04-30T16:21:44.118Z,25.80
2024-04-30T16:24:11.636Z,26.30
2024-04-30T16:26:42.188Z,26.10
2024-04-30T16:29:11.207Z,26.70
2024-04-30T16:31:38.486Z,27.00
2024-04-30T16:34:05.970Z,27.20
2024-04-30T16:36:33.166Z,27.20
2024-04-30T16:39:00.122Z,28.10
2024-04-30T16:41:27.188Z,27.40
2024-04-30T16:43:54.266Z,27.70
2024-04-30T16:46:21.282Z,28.00
2024-04-30T16:48:48.443Z,28.50
2024-04-30T16:51:15.499Z,28.40
2024-04-30T16:53:43.542Z,28.40
2024-04-30T16:56:11.002Z,28.90
2024-04-30T16:58:38.542Z,29.20
2024-04-30T17:01:05.617Z,29.30
2024-04-30T17:03:34.281Z,29.60
2024-04-30T17:06:06.285Z,29.40
2024-04-30T17:08:33.238Z,29.60
2024-04-30T17:11:00.250Z,29.90
2024-04-30T17:13:27.282Z,29.80
2024-04-30T17:15:57.276Z,29.70
2024-04-30T17:18:24.346Z,29.90
2024-04-30T17:20:52.159Z,29.80
2024-04-30T17:23:19.146Z,30.20
2024-04-30T17:25:46.066Z,30.00
2024-04-30T17:28:17.444Z,30.20
2024-04-30T17:30:44.406Z,30.50
2024-04-30T17:33:11.323Z,30.60
2024-04-30T17:35:38.346Z,30.80
2024-04-30T17:38:08.398Z,31.10
2024-04-30T17:40:35.372Z,31.30
2024-04-30T17:43:02.434Z,31.80
2024-04-30T17:45:29.492Z,31.90
2024-04-30T17:47:56.803Z,32.20
2024-04-30T17:50:23.968Z,32.30
2024-04-30T17:52:55.245Z,32.60
2024-04-30T17:55:22.234Z,32.70
2024-04-30T17:57:49.217Z,32.90
2024-04-30T18:00:16.390Z,33.10
2024-04-30T18:02:43.407Z,33.30
2024-04-30T18:05:10.483Z,33.30
2024-04-30T18:07:37.477Z,33.60
2024-04-30T18:10:04.772Z,33.70
2024-04-30T18:12:31.742Z,33.90
2024-04-30T18:15:01.712Z,34.00
2024-04-30T18:17:28.693Z,34.20
2024-04-30T18:19:55.650Z,34.30
2024-04-30T18:22:22.775Z,34.40
2024-04-30T18:24:49.805Z,34.50
2024-04-30T18:27:18.050Z,34.70
2024-04-30T18:29:45.090Z,34.80
2024-04-30T18:32:12.079Z,34.90
2024-04-30T18:34:39.106Z,34.80
2024-04-30T18:37:08.181Z,34.80
2024-04-30T18:39:35.232Z,34.80
2024-04-30T18:42:02.312Z,35.00
2024-04-30T18:44:30.890Z,35.10
2024-04-30T18:46:59.267Z,35.10
2024-04-30T18:49:26.403Z,35.20
2024-04-30T18:51:53.716Z,35.20
2024-04-30T18:54:20.934Z,35.40
2024-04-30T18:56:50.174Z,35.30
2024-04-30T18:59:18.765Z,35.50
2024-04-30T19:01:48.915Z,35.70
2024-04-30T19:04:15.963Z,35.70
2024-04-30T19:06:43.225Z,35.90
2024-04-30T19:09:10.367Z,35.90
2024-04-30T19:11:37.327Z,36.10
2024-04-30T19:14:04.364Z,36.10
2024-04-30T19:16:31.315Z,36.20
2024-04-30T19:19:00.554Z,36.30
2024-04-30T19:21:27.625Z,36.40
2024-04-30T19:23:54.634Z,36.40
2024-04-30T19:26:21.594Z,36.50
2024-04-30T19:28:51.167Z,36.50
2024-04-30T19:31:20.776Z,36.70
2024-04-30T19:33:48.306Z,36.90
2024-04-30T19:36:19.747Z,37.00
2024-04-30T19:38:47.720Z,37.10
2024-04-30T19:41:15.647Z,37.00
2024-04-30T19:43:43.098Z,37.30
2024-04-30T19:46:20.922Z,37.20
2024-04-30T19:48:50.988Z,37.30
2024-04-30T19:51:21.990Z,37.30
2024-04-30T19:53:53.468Z,37.40
2024-04-30T19:56:23.850Z,37.20
2024-04-30T19:58:57.168Z,37.20
2024-04-30T20:01:29.048Z,37.40
2024-04-30T20:04:00.737Z,37.40
2024-04-30T20:06:28.204Z,37.50
2024-04-30T20:08:55.318Z,37.40
2024-04-30T20:11:25.026Z,37.60
2024-04-30T20:13:53.342Z,37.60
2024-04-30T20:16:20.408Z,37.70
2024-04-30T20:18:47.585Z,37.80
2024-04-30T20:21:15.596Z,37.80
2024-04-30T20:23:43.085Z,37.90
2024-04-30T20:26:12.330Z,37.90
2024-04-30T20:28:42.088Z,38.00
2024-04-30T20:31:09.095Z,38.10
2024-04-30T20:33:36.413Z,38.20
2024-04-30T20:36:03.668Z,38.10
2024-04-30T20:38:32.574Z,38.00
2024-04-30T20:40:59.583Z,38.20
2024-04-30T20:43:26.576Z,38.20
2024-04-30T20:45:53.543Z,38.10
2024-04-30T20:48:20.753Z,38.40
2024-04-30T20:50:47.784Z,38.50
2024-04-30T20:53:14.823Z,38.40
2024-04-30T20:55:45.387Z,38.60
2024-04-30T20:58:12.736Z,38.60
2024-04-30T21:00:39.773Z,38.80
2024-04-30T21:03:06.826Z,38.90
2024-04-30T21:05:33.920Z,39.40
2024-04-30T21:08:01.541Z,39.90
2024-04-30T21:10:28.491Z,40.50
2024-04-30T21:12:58.905Z,40.90
2024-04-30T21:15:25.983Z,41.20
2024-04-30T21:17:55.815Z,41.20
2024-04-30T21:20:22.817Z,41.30
2024-04-30T21:22:49.779Z,42.00
2024-04-30T21:25:16.674Z,42.10
2024-04-30T21:27:43.651Z,42.40
2024-04-30T21:30:11.444Z,42.70
2024-04-30T21:32:38.426Z,43.10
2024-04-30T21:35:13.037Z,44.20
2024-04-30T21:37:40.671Z,44.30
2024-04-30T21:40:08.960Z,44.80
2024-04-30T21:42:36.245Z,44.00
2024-04-30T21:45:06.229Z,45.10
2024-04-30T21:47:33.219Z,44.70
2024-04-30T21:50:00.276Z,45.20
2024-04-30T21:52:27.271Z,44.90
2024-04-30T21:54:57.379Z,45.60
2024-04-30T21:57:26.159Z,46.10
2024-04-30T21:59:53.109Z,46.70
2024-04-30T22:02:23.756Z,46.70
2024-04-30T22:04:50.772Z,47.20
2024-04-30T22:07:21.212Z,46.60
2024-04-30T22:09:48.482Z,47.10
2024-04-30T22:12:15.549Z,47.40
2024-04-30T22:14:42.488Z,47.20
2024-04-30T22:17:09.419Z,47.40
2024-04-30T22:19:36.469Z,47.50
2024-04-30T22:22:03.600Z,47.40
2024-04-30T22:24:30.620Z,47.80
2024-04-30T22:26:57.589Z,48.40
2024-04-30T22:29:24.551Z,48.30
2024-04-30T22:31:52.108Z,48.20
2024-04-30T22:34:19.420Z,49.00
2024-04-30T22:36:48.611Z,49.50
2024-04-30T22:39:15.568Z,50.30
2024-04-30T22:41:42.503Z,50.20
2024-04-30T22:44:09.378Z,50.30
2024-04-30T22:46:36.359Z,50.60
2024-04-30T22:49:06.043Z,50.20
2024-04-30T22:51:33.085Z,50.20
2024-04-30T22:54:00.000Z,50.60
2024-04-30T22:56:27.510Z,51.00
2024-04-30T22:58:55.259Z,50.70
2024-04-30T23:01:22.311Z,51.00
2024-04-30T23:03:49.480Z,51.00
2024-04-30T23:06:16.476Z,51.60
2024-04-30T23:08:43.446Z,51.70
2024-04-30T23:11:10.384Z,51.30
2024-04-30T23:13:37.315Z,52.00
2024-04-30T23:16:04.578Z,52.60
2024-04-30T23:18:31.803Z,52.80
2024-04-30T23:21:01.216Z,52.80
2024-04-30T23:23:28.418Z,52.30
2024-04-30T23:25:55.314Z,52.80
2024-04-30T23:28:22.192Z,52.70
2024-04-30T23:30:49.182Z,52.50
2024-04-30T23:33:16.138Z,52.60
2024-04-30T23:35:43.076Z,53.00
2024-04-30T23:38:10.005Z,53.30
2024-04-30T23:40:36.927Z,53.30
2024-04-30T23:43:03.984Z,53.70
2024-04-30T23:45:31.020Z,53.00
2024-04-30T23:47:57.988Z,53.60
2024-04-30T23:50:24.922Z,53.90
2024-04-30T23:52:51.871Z,53.90
2024-04-30T23:55:20.879Z,54.00
2024-04-30T23:57:47.888Z,54.50
